Overview Statistics Trail Chart Weather Telemetry Raw packets
 

This is the latest recevied weather packets stored in our database for station/object KB4RFE. If no packets are shown the sender has not sent any weather packets the latest 10 day(s).

<< 71 72 73 74 75 76 77 >>
Time Temp. Humidity Pressure Rain* Wind** Luminosity Snow
1788118845 30.56° C 78% 1023 hPa 0 mm - 915 W/m² -
1788118544 30.56° C 79% 1022.8 hPa 0 mm - 432 W/m² -
1788118240 31.67° C 75% 1022.9 hPa 0 mm - 698 W/m² -
1788117936 31.67° C 76% 1023.1 hPa 0 mm - 989 W/m² -
1788117635 31.11° C 79% 1023 hPa 0 mm - 526 W/m² -
1788117330 31.67° C 76% 1022.8 hPa 0 mm - 541 W/m² -
1788117025 31.67° C 73% 1022.9 hPa 0 mm - 488 W/m² -
1788116721 31.67° C 74% 1022.9 hPa 0 mm - 547 W/m² -
1788116416 31.11° C 73% 1022.9 hPa 0 mm - 781 W/m² -
1788116110 31.67° C 73% 1022.9 hPa 0 mm - 679 W/m² -
1788115805 31.67° C 74% 1023 hPa 0 mm - 565 W/m² -
1788115504 31.67° C 74% 1022.9 hPa 0 mm - 607 W/m² -
1788115194 31.11° C 75% 1023 hPa 0 mm - 777 W/m² -
1788114894 31.11° C 75% 1023 hPa 0 mm - 819 W/m² -
1788114590 31.67° C 70% 1023 hPa 0 mm - 561 W/m² -
1788114285 32.22° C 71% 1023.3 hPa 0 mm - 427 W/m² -
1788113981 31.67° C 73% 1023.5 hPa 0 mm - 674 W/m² -
1788113677 31.11° C 73% 1023.5 hPa 0 mm - 590 W/m² -
1788113377 31.11° C 73% 1023.4 hPa 0 mm - 566 W/m² -
1788113076 30.56° C 75% 1023.4 hPa 0 mm - 835 W/m² -
1788112775 30.56° C 73% 1023.7 hPa 0 mm - 485 W/m² -
1788112475 31.11° C 72% 1023.6 hPa 0 mm - 445 W/m² -
1788112170 31.67° C 71% 1024 hPa 0 mm - 417 W/m² -
1788111866 31.67° C 69% 1023.8 hPa 0 mm - 756 W/m² -
1788111561 31.11° C 75% 1023.8 hPa 0 mm - 1056 W/m² -

* Rain latest hour (hover to see other rain measurements)
** Current wind speed in m/s (hover to see current wind gust speed)